createdAt,value
2023-05-09T00:00:29.986Z,3.10
2023-05-09T00:03:16.969Z,4.00
2023-05-09T00:05:49.100Z,3.50
2023-05-09T00:08:21.200Z,3.70
2023-05-09T00:10:53.903Z,3.40
2023-05-09T00:13:26.646Z,3.60
2023-05-09T00:15:59.093Z,3.30
2023-05-09T00:18:31.422Z,4.00
2023-05-09T00:21:04.237Z,3.80
2023-05-09T00:23:36.348Z,3.40
2023-05-09T00:26:08.872Z,2.30
2023-05-09T00:28:41.145Z,4.20
2023-05-09T00:31:13.437Z,2.60
2023-05-09T00:33:45.707Z,3.30
2023-05-09T00:36:17.971Z,3.00
2023-05-09T00:38:50.428Z,3.00
2023-05-09T00:41:22.724Z,3.00
2023-05-09T00:43:54.772Z,3.30
2023-05-09T00:46:27.290Z,3.30
2023-05-09T00:48:59.910Z,3.60
2023-05-09T00:51:32.723Z,3.10
2023-05-09T00:54:07.009Z,3.30
2023-05-09T00:59:11.753Z,2.90
2023-05-09T01:01:44.030Z,3.90
2023-05-09T01:04:17.141Z,3.80
2023-05-09T01:06:57.203Z,2.70
2023-05-09T01:09:39.453Z,2.60
2023-05-09T01:12:22.262Z,3.20
2023-05-09T01:15:01.380Z,2.80
2023-05-09T01:17:45.261Z,2.40
2023-05-09T01:20:25.101Z,2.80
2023-05-09T01:23:02.847Z,3.10
2023-05-09T01:25:46.401Z,2.80
2023-05-09T01:28:32.083Z,2.40
2023-05-09T01:31:08.215Z,2.70
2023-05-09T01:33:44.015Z,2.60
2023-05-09T01:36:21.570Z,2.90
2023-05-09T01:38:55.586Z,2.80
2023-05-09T01:41:31.123Z,2.30
2023-05-09T01:44:07.675Z,2.60
2023-05-09T01:46:41.117Z,2.50
2023-05-09T01:49:15.060Z,3.00
2023-05-09T01:51:49.024Z,3.00
2023-05-09T01:54:22.716Z,2.20
2023-05-09T01:56:56.131Z,1.90
2023-05-09T01:59:29.998Z,2.80
2023-05-09T02:02:03.494Z,2.10
2023-05-09T02:04:36.983Z,2.30
2023-05-09T02:07:10.874Z,2.40
2023-05-09T02:09:43.378Z,2.50
2023-05-09T02:12:15.547Z,2.10
2023-05-09T02:14:48.061Z,2.50
2023-05-09T02:17:21.789Z,1.50
2023-05-09T02:19:54.031Z,2.20
2023-05-09T02:22:27.039Z,2.20
2023-05-09T02:25:00.721Z,2.40
2023-05-09T02:27:34.264Z,1.80
2023-05-09T02:30:10.284Z,2.50
2023-05-09T02:32:44.699Z,1.90
2023-05-09T02:35:18.587Z,1.60
2023-05-09T02:37:52.360Z,2.40
2023-05-09T02:40:26.239Z,1.80
2023-05-09T02:42:58.953Z,1.90
2023-05-09T02:45:32.116Z,2.40
2023-05-09T02:48:06.869Z,2.70
2023-05-09T02:50:42.950Z,1.90
2023-05-09T02:53:15.262Z,2.00
2023-05-09T02:55:47.682Z,2.10
2023-05-09T02:58:19.942Z,2.20
2023-05-09T03:00:52.268Z,3.30
2023-05-09T03:03:25.586Z,2.00
2023-05-09T03:05:57.897Z,2.10
2023-05-09T03:08:30.031Z,2.70
2023-05-09T03:11:02.397Z,2.20
2023-05-09T03:13:34.661Z,2.50
2023-05-09T03:16:07.401Z,2.70
2023-05-09T03:18:40.143Z,3.60
2023-05-09T03:21:12.737Z,2.10
2023-05-09T03:23:45.049Z,1.90
2023-05-09T03:26:17.270Z,2.00
2023-05-09T03:28:49.846Z,3.90
2023-05-09T03:31:22.051Z,2.00
2023-05-09T03:33:54.606Z,2.80
2023-05-09T03:36:27.655Z,2.50
2023-05-09T03:38:59.996Z,2.30
2023-05-09T03:41:32.267Z,1.30
2023-05-09T03:44:04.796Z,2.00
2023-05-09T03:46:37.228Z,1.60
2023-05-09T03:49:09.432Z,2.60
2023-05-09T03:51:42.244Z,2.70
2023-05-09T03:54:14.632Z,2.40
2023-05-09T03:56:46.862Z,2.40
2023-05-09T03:59:19.221Z,2.10
2023-05-09T04:01:51.637Z,2.90
2023-05-09T04:04:24.034Z,1.80
2023-05-09T04:06:56.286Z,2.60
2023-05-09T04:09:28.939Z,2.60
2023-05-09T04:12:01.054Z,3.30
2023-05-09T04:14:33.236Z,1.80
2023-05-09T04:17:05.604Z,2.70
2023-05-09T04:19:38.346Z,2.30
2023-05-09T04:22:10.694Z,3.00
2023-05-09T04:24:42.903Z,2.10
2023-05-09T04:27:15.156Z,2.30
2023-05-09T04:29:47.262Z,3.70
2023-05-09T04:32:20.927Z,2.30
2023-05-09T04:34:53.220Z,2.40
2023-05-09T04:37:25.277Z,3.20
2023-05-09T04:39:57.407Z,3.60
2023-05-09T04:42:29.604Z,4.90
2023-05-09T04:45:02.053Z,5.50
2023-05-09T04:47:34.463Z,3.00
2023-05-09T04:50:08.149Z,2.70
2023-05-09T04:52:40.448Z,3.00
2023-05-09T04:55:13.529Z,2.70
2023-05-09T04:57:46.019Z,3.80
2023-05-09T05:00:19.528Z,3.00
2023-05-09T05:02:51.869Z,1.80
2023-05-09T05:05:25.450Z,2.30
2023-05-09T05:07:58.137Z,2.60
2023-05-09T05:10:30.874Z,3.30
2023-05-09T05:13:03.305Z,2.90
2023-05-09T05:15:36.059Z,2.50
2023-05-09T05:18:08.556Z,1.90
2023-05-09T05:20:43.604Z,3.70
2023-05-09T05:23:15.970Z,3.20
2023-05-09T05:25:48.362Z,2.00
2023-05-09T05:28:20.939Z,3.70
2023-05-09T05:30:53.178Z,2.00
2023-05-09T05:33:25.647Z,1.80
2023-05-09T05:35:57.790Z,4.30
2023-05-09T05:38:29.860Z,2.40
2023-05-09T05:41:02.117Z,2.90
2023-05-09T05:43:34.293Z,2.60
2023-05-09T05:46:06.944Z,3.00
2023-05-09T05:48:39.362Z,2.70
2023-05-09T05:51:11.716Z,2.10
2023-05-09T05:53:46.497Z,3.50
2023-05-09T05:56:18.719Z,2.50
2023-05-09T05:58:51.148Z,3.50
2023-05-09T06:01:23.435Z,2.40
2023-05-09T06:03:56.276Z,3.10
2023-05-09T06:06:29.255Z,2.40
2023-05-09T06:09:01.719Z,2.30
2023-05-09T06:11:33.795Z,2.60
2023-05-09T06:14:06.150Z,2.90
2023-05-09T06:16:38.297Z,2.80
2023-05-09T06:19:10.605Z,3.00
2023-05-09T06:21:42.891Z,2.40
2023-05-09T06:24:27.595Z,1.90
2023-05-09T06:27:07.440Z,3.30
2023-05-09T06:29:39.798Z,4.10
2023-05-09T06:32:11.935Z,2.30
2023-05-09T06:34:44.291Z,2.20
2023-05-09T06:37:16.483Z,2.30
2023-05-09T06:39:51.896Z,4.50
2023-05-09T06:42:24.284Z,2.00
2023-05-09T06:44:56.575Z,2.80
2023-05-09T06:47:28.975Z,4.20
2023-05-09T06:50:01.145Z,2.20
2023-05-09T06:52:33.373Z,2.40
2023-05-09T06:55:06.312Z,2.70
2023-05-09T06:57:39.923Z,2.20
2023-05-09T07:00:14.350Z,2.70
2023-05-09T07:02:46.935Z,2.90
2023-05-09T07:05:22.709Z,2.20
2023-05-09T07:07:55.489Z,1.90
2023-05-09T07:10:27.940Z,2.40
2023-05-09T07:13:00.308Z,3.10
2023-05-09T07:15:41.421Z,2.50
2023-05-09T07:18:15.462Z,1.40
2023-05-09T07:20:47.649Z,2.30
2023-05-09T07:23:19.890Z,2.00
2023-05-09T07:25:56.862Z,2.40
2023-05-09T07:28:29.205Z,2.50
2023-05-09T07:31:01.560Z,3.00
2023-05-09T07:33:34.554Z,2.10
2023-05-09T07:36:07.120Z,2.30
2023-05-09T07:38:39.442Z,2.30
2023-05-09T07:41:11.754Z,2.60
2023-05-09T07:43:44.092Z,3.90
2023-05-09T07:46:16.447Z,2.40
2023-05-09T07:48:48.961Z,2.50
2023-05-09T07:51:21.283Z,3.00
2023-05-09T07:53:55.308Z,2.90
2023-05-09T07:56:27.737Z,2.00
2023-05-09T07:59:02.435Z,2.90
2023-05-09T08:01:34.765Z,2.70
2023-05-09T08:04:09.170Z,1.60
2023-05-09T08:06:41.781Z,2.80
2023-05-09T08:09:14.025Z,2.20
2023-05-09T08:11:46.411Z,2.10
2023-05-09T08:14:18.805Z,2.70
2023-05-09T08:16:51.134Z,2.20
2023-05-09T08:19:29.854Z,3.60
2023-05-09T08:22:08.186Z,2.20
2023-05-09T08:24:40.645Z,2.40
2023-05-09T08:27:14.086Z,2.10
2023-05-09T08:29:46.619Z,1.70
2023-05-09T08:32:20.058Z,2.50
2023-05-09T08:34:55.517Z,2.00
2023-05-09T08:37:29.111Z,2.50
2023-05-09T08:40:01.394Z,2.50
2023-05-09T08:42:37.525Z,2.60
2023-05-09T08:45:14.926Z,1.40
2023-05-09T08:47:47.905Z,2.90
2023-05-09T08:50:21.792Z,1.70
2023-05-09T08:52:57.426Z,2.30
2023-05-09T08:55:35.511Z,2.00
2023-05-09T08:58:08.248Z,2.20
2023-05-09T09:00:42.846Z,2.80
2023-05-09T09:03:15.788Z,2.40
2023-05-09T09:05:50.630Z,2.30
2023-05-09T09:08:26.356Z,1.70
2023-05-09T09:10:58.973Z,2.30
2023-05-09T09:13:33.061Z,2.20
2023-05-09T09:16:06.129Z,2.70
2023-05-09T09:18:40.514Z,3.90
2023-05-09T09:21:17.033Z,2.70
2023-05-09T09:23:50.851Z,2.60
2023-05-09T09:26:23.130Z,2.50
2023-05-09T09:28:57.087Z,2.20
2023-05-09T09:31:33.204Z,3.00
2023-05-09T09:34:06.034Z,2.70
2023-05-09T09:36:38.374Z,3.60
2023-05-09T09:39:10.569Z,2.90
2023-05-09T09:41:45.131Z,2.60
2023-05-09T09:44:19.098Z,3.70
2023-05-09T09:46:53.155Z,3.80
2023-05-09T09:49:27.177Z,2.30
2023-05-09T09:52:00.100Z,2.30
2023-05-09T09:54:33.530Z,2.70
2023-05-09T09:57:05.839Z,2.50
2023-05-09T09:59:38.174Z,2.80
2023-05-09T10:02:12.517Z,2.60
2023-05-09T10:04:45.237Z,2.10
2023-05-09T10:07:17.443Z,2.60
2023-05-09T10:09:49.900Z,2.40
2023-05-09T10:12:23.718Z,2.30
2023-05-09T10:14:56.698Z,4.10
2023-05-09T10:17:31.323Z,3.00
2023-05-09T10:20:07.029Z,3.40
2023-05-09T10:22:41.811Z,3.70
2023-05-09T10:25:20.863Z,2.60
2023-05-09T10:27:57.253Z,2.60
2023-05-09T10:30:34.317Z,3.00
2023-05-09T10:33:11.881Z,3.60
2023-05-09T10:35:48.265Z,3.10
2023-05-09T10:38:21.533Z,3.30
2023-05-09T10:40:54.921Z,2.90
2023-05-09T10:43:34.257Z,3.30
2023-05-09T10:46:08.429Z,4.00
2023-05-09T10:48:42.789Z,4.20
2023-05-09T10:51:16.449Z,4.10
2023-05-09T10:53:50.440Z,3.80
2023-05-09T10:56:33.937Z,4.70
2023-05-09T10:59:06.251Z,4.30
2023-05-09T11:01:39.836Z,3.50
2023-05-09T11:04:17.942Z,3.30
2023-05-09T11:06:52.467Z,3.40
2023-05-09T11:09:30.308Z,5.10
2023-05-09T11:12:09.735Z,4.20
2023-05-09T11:14:48.834Z,3.70
2023-05-09T11:17:32.929Z,3.60
2023-05-09T11:20:07.872Z,3.20
2023-05-09T11:22:44.244Z,2.70
2023-05-09T11:25:17.902Z,2.50
2023-05-09T11:27:52.288Z,2.60
2023-05-09T11:30:24.728Z,3.90
2023-05-09T11:32:59.197Z,4.20
2023-05-09T11:35:31.875Z,4.50
2023-05-09T11:38:08.029Z,4.10
2023-05-09T11:40:40.985Z,3.10
2023-05-09T11:43:13.891Z,3.00
2023-05-09T11:45:48.024Z,3.80
2023-05-09T11:48:24.785Z,3.00
2023-05-09T11:50:57.152Z,4.30
2023-05-09T11:53:29.322Z,3.20
2023-05-09T11:56:06.449Z,3.70
2023-05-09T11:58:41.243Z,3.70
2023-05-09T12:01:13.740Z,4.10
2023-05-09T12:03:47.136Z,3.80
2023-05-09T12:06:21.189Z,4.40
2023-05-09T12:08:54.898Z,3.80
2023-05-09T12:11:32.438Z,4.60
2023-05-09T12:14:05.538Z,3.50
2023-05-09T12:16:46.340Z,3.00
2023-05-09T12:19:21.890Z,3.50
2023-05-09T12:21:59.475Z,3.90
2023-05-09T12:24:32.471Z,3.90
2023-05-09T12:27:08.066Z,2.90
2023-05-09T12:29:42.459Z,4.00
2023-05-09T12:32:15.584Z,3.80
2023-05-09T12:34:48.705Z,3.90
2023-05-09T12:37:21.647Z,2.70
2023-05-09T12:40:05.222Z,3.50
2023-05-09T12:42:38.185Z,3.60
2023-05-09T12:45:13.476Z,3.80
2023-05-09T12:47:46.667Z,3.20
2023-05-09T12:50:19.304Z,2.90
2023-05-09T12:53:02.533Z,3.20
2023-05-09T12:55:42.524Z,2.70
2023-05-09T12:58:17.783Z,3.70
2023-05-09T13:00:50.151Z,5.10
2023-05-09T13:03:27.521Z,4.30
2023-05-09T13:06:01.025Z,3.00
2023-05-09T13:08:33.576Z,4.10
2023-05-09T13:11:15.336Z,3.10
2023-05-09T13:13:48.673Z,4.30
2023-05-09T13:16:21.275Z,3.20
2023-05-09T13:18:53.581Z,3.60
2023-05-09T13:21:25.800Z,5.60
2023-05-09T13:23:58.153Z,2.40
2023-05-09T13:26:30.775Z,3.20
2023-05-09T13:29:03.117Z,2.70
2023-05-09T13:31:35.663Z,4.20
2023-05-09T13:34:07.841Z,3.10
2023-05-09T13:36:40.138Z,2.10
2023-05-09T13:39:12.592Z,3.50
2023-05-09T13:41:44.989Z,2.90
2023-05-09T13:44:17.488Z,2.80
2023-05-09T13:46:49.891Z,3.70
2023-05-09T13:49:22.357Z,3.10
2023-05-09T13:51:54.585Z,2.80
2023-05-09T13:54:29.641Z,2.30
2023-05-09T13:57:01.898Z,2.60
2023-05-09T13:59:35.036Z,2.30
2023-05-09T14:02:07.363Z,2.60
2023-05-09T14:04:40.808Z,2.80
2023-05-09T14:07:14.974Z,2.60
2023-05-09T14:09:49.093Z,2.40
2023-05-09T14:12:24.340Z,1.90
2023-05-09T14:14:56.758Z,2.70
2023-05-09T14:17:29.177Z,2.90
2023-05-09T14:20:01.526Z,2.60
2023-05-09T14:22:34.031Z,3.20
2023-05-09T14:25:07.375Z,3.00
2023-05-09T14:27:41.560Z,3.10
2023-05-09T14:30:15.924Z,2.90
2023-05-09T14:32:48.302Z,2.30
2023-05-09T14:35:21.036Z,3.40
2023-05-09T14:37:53.347Z,4.80
2023-05-09T14:40:26.466Z,3.30
2023-05-09T14:42:59.189Z,2.50
2023-05-09T14:45:32.850Z,3.20
2023-05-09T14:48:05.627Z,2.40
2023-05-09T14:50:38.009Z,2.50
2023-05-09T14:53:11.278Z,3.30
2023-05-09T14:55:43.578Z,3.30
2023-05-09T14:58:16.237Z,2.90
2023-05-09T15:00:48.754Z,3.20
2023-05-09T15:03:21.210Z,5.20
2023-05-09T15:05:53.784Z,2.70
2023-05-09T15:08:26.165Z,3.20
2023-05-09T15:10:58.875Z,3.20
2023-05-09T15:13:31.408Z,4.80
2023-05-09T15:16:03.809Z,3.00
2023-05-09T15:18:36.363Z,3.00
2023-05-09T15:21:08.897Z,2.30
2023-05-09T15:23:41.362Z,3.20
2023-05-09T15:26:13.596Z,3.20
2023-05-09T15:28:45.985Z,2.20
2023-05-09T15:31:21.808Z,2.10
2023-05-09T15:33:54.193Z,4.00
2023-05-09T15:36:26.511Z,2.50
2023-05-09T15:38:59.100Z,2.20
2023-05-09T15:41:31.794Z,2.60
2023-05-09T15:44:04.438Z,2.60
2023-05-09T15:46:37.941Z,2.80
2023-05-09T15:49:13.610Z,1.70
2023-05-09T15:51:46.024Z,1.90
2023-05-09T15:54:18.543Z,2.60
2023-05-09T15:56:50.843Z,1.60
2023-05-09T15:59:23.247Z,2.00
2023-05-09T16:01:55.804Z,2.80
2023-05-09T16:04:28.203Z,2.10
2023-05-09T16:07:03.249Z,1.40
2023-05-09T16:09:37.400Z,3.00
2023-05-09T16:12:10.241Z,2.00
2023-05-09T16:14:42.594Z,2.30
2023-05-09T16:17:14.846Z,2.10
2023-05-09T16:19:47.359Z,3.00
2023-05-09T16:22:19.672Z,4.70
2023-05-09T16:24:51.770Z,3.20
2023-05-09T16:27:24.221Z,3.30
2023-05-09T16:29:56.366Z,2.70
2023-05-09T16:32:28.657Z,3.60
2023-05-09T16:35:01.042Z,3.00
2023-05-09T16:37:35.402Z,4.50
2023-05-09T16:40:10.013Z,4.60
2023-05-09T16:42:42.990Z,4.50
2023-05-09T16:45:15.974Z,5.30
2023-05-09T16:47:48.839Z,4.90
2023-05-09T16:50:22.858Z,4.70
2023-05-09T16:52:55.591Z,6.30
2023-05-09T16:55:28.825Z,4.10
2023-05-09T16:58:01.311Z,4.50
2023-05-09T17:00:33.862Z,3.80
2023-05-09T17:03:07.269Z,3.50
2023-05-09T17:05:39.937Z,3.60
2023-05-09T17:08:12.142Z,3.00
2023-05-09T17:10:44.457Z,3.70
2023-05-09T17:13:16.619Z,3.10
2023-05-09T17:15:49.453Z,3.80
2023-05-09T17:18:33.306Z,4.10
2023-05-09T17:21:08.848Z,3.50
2023-05-09T17:23:41.337Z,4.70
2023-05-09T17:26:13.714Z,3.20
2023-05-09T17:28:46.074Z,3.90
2023-05-09T17:31:18.479Z,3.30
2023-05-09T17:33:50.848Z,3.90
2023-05-09T17:36:23.358Z,3.80
2023-05-09T17:38:56.256Z,4.90
2023-05-09T17:41:28.518Z,2.80
2023-05-09T17:44:00.814Z,3.50
2023-05-09T17:46:33.152Z,6.40
2023-05-09T17:49:07.765Z,4.50
2023-05-09T17:51:40.314Z,5.00
2023-05-09T17:54:13.132Z,7.70
2023-05-09T17:56:45.585Z,4.40
2023-05-09T17:59:17.876Z,4.60
2023-05-09T18:01:50.355Z,4.90
2023-05-09T18:04:22.977Z,5.00
2023-05-09T18:06:55.214Z,3.80
2023-05-09T18:09:28.165Z,5.00
2023-05-09T18:12:00.529Z,4.90
2023-05-09T18:14:33.019Z,4.80
2023-05-09T18:17:05.430Z,3.60
2023-05-09T18:19:39.959Z,5.10
2023-05-09T18:22:15.881Z,4.90
2023-05-09T18:27:19.022Z,4.50
2023-05-09T18:29:51.465Z,5.10
2023-05-09T18:32:24.154Z,5.30
2023-05-09T18:34:56.913Z,4.00
2023-05-09T18:37:29.747Z,4.50
2023-05-09T18:40:02.533Z,5.50
2023-05-09T18:42:36.394Z,3.90
2023-05-09T18:45:10.656Z,5.00
2023-05-09T18:47:43.053Z,4.60
2023-05-09T18:50:16.095Z,4.30
2023-05-09T18:52:48.756Z,5.10
2023-05-09T18:55:22.195Z,4.90
2023-05-09T18:57:54.733Z,4.90
2023-05-09T19:00:27.225Z,4.50
2023-05-09T19:02:59.732Z,3.60
2023-05-09T19:05:31.977Z,5.40
2023-05-09T19:08:04.401Z,3.30
2023-05-09T19:10:38.028Z,5.90
2023-05-09T19:13:10.470Z,4.30
2023-05-09T19:15:42.774Z,5.40
2023-05-09T19:18:15.213Z,5.00
2023-05-09T19:20:48.057Z,3.80
2023-05-09T19:23:20.497Z,4.30
2023-05-09T19:25:53.916Z,5.50
2023-05-09T19:28:26.921Z,3.70
2023-05-09T19:30:59.382Z,4.20
2023-05-09T19:33:31.859Z,4.30
2023-05-09T19:36:04.410Z,3.20
2023-05-09T19:38:36.740Z,4.60
2023-05-09T19:41:09.309Z,3.10
2023-05-09T19:43:41.669Z,5.20
2023-05-09T19:46:13.937Z,4.60
2023-05-09T19:48:46.799Z,3.60
2023-05-09T19:51:19.159Z,4.50
2023-05-09T19:53:51.590Z,3.40
2023-05-09T19:56:24.086Z,3.90
2023-05-09T19:58:56.397Z,7.50
2023-05-09T20:01:29.636Z,12.30
2023-05-09T20:04:01.910Z,5.80
2023-05-09T20:06:35.539Z,3.10
2023-05-09T20:09:07.695Z,4.40
2023-05-09T20:11:40.050Z,3.10
2023-05-09T20:14:12.885Z,4.00
2023-05-09T20:16:45.727Z,3.10
2023-05-09T20:19:23.212Z,4.50
2023-05-09T20:21:55.557Z,3.30
2023-05-09T20:24:27.826Z,4.00
2023-05-09T20:27:00.211Z,2.80
2023-05-09T20:29:32.809Z,3.40
2023-05-09T20:32:05.047Z,3.20
2023-05-09T20:34:37.279Z,4.10
2023-05-09T20:37:09.450Z,3.50
2023-05-09T20:39:41.721Z,4.00
2023-05-09T20:42:14.137Z,2.70
2023-05-09T20:44:47.730Z,3.10
2023-05-09T20:47:19.999Z,3.90
2023-05-09T20:49:52.139Z,2.90
2023-05-09T20:52:24.374Z,2.90
2023-05-09T20:54:56.632Z,3.20
2023-05-09T20:57:28.911Z,2.70
2023-05-09T21:00:01.144Z,3.00
2023-05-09T21:02:33.411Z,3.20
2023-05-09T21:05:06.247Z,2.70
2023-05-09T21:07:38.575Z,3.20
2023-05-09T21:10:12.371Z,3.20
2023-05-09T21:12:44.715Z,3.30
2023-05-09T21:15:17.220Z,2.80
2023-05-09T21:17:49.481Z,2.90
2023-05-09T21:20:21.969Z,3.00
2023-05-09T21:22:54.235Z,3.60
2023-05-09T21:25:26.693Z,4.00
2023-05-09T21:27:58.860Z,3.40
2023-05-09T21:30:31.109Z,3.80
2023-05-09T21:33:04.044Z,3.60
2023-05-09T21:35:36.400Z,4.20
2023-05-09T21:38:09.159Z,4.30
2023-05-09T21:40:42.038Z,3.10
2023-05-09T21:43:14.367Z,3.30
2023-05-09T21:45:46.978Z,4.20
2023-05-09T21:48:19.299Z,2.90
2023-05-09T21:50:51.483Z,3.70
2023-05-09T21:53:23.856Z,3.10
2023-05-09T21:55:56.681Z,3.80
2023-05-09T21:58:28.943Z,3.70
2023-05-09T22:01:01.406Z,4.90
2023-05-09T22:03:34.097Z,3.20
2023-05-09T22:06:07.767Z,3.50
2023-05-09T22:08:39.953Z,4.10
2023-05-09T22:11:14.126Z,3.30
2023-05-09T22:13:47.201Z,5.60
2023-05-09T22:16:19.646Z,4.30
2023-05-09T22:18:51.964Z,3.60
2023-05-09T22:21:24.358Z,6.50
2023-05-09T22:23:56.815Z,2.90
2023-05-09T22:26:28.988Z,4.30
2023-05-09T22:29:01.218Z,5.50
2023-05-09T22:31:33.604Z,5.30
2023-05-09T22:34:05.798Z,5.50
2023-05-09T22:36:38.183Z,4.70
2023-05-09T22:39:11.181Z,5.30
2023-05-09T22:41:43.571Z,4.80
2023-05-09T22:44:15.889Z,4.60
2023-05-09T22:46:48.243Z,4.90
2023-05-09T22:49:20.460Z,3.90
2023-05-09T22:51:52.604Z,5.50
2023-05-09T22:54:25.653Z,4.40
2023-05-09T22:56:57.989Z,6.30
2023-05-09T22:59:30.236Z,4.80
2023-05-09T23:02:02.729Z,5.20
2023-05-09T23:04:34.948Z,6.50
2023-05-09T23:07:07.506Z,5.40
2023-05-09T23:09:41.033Z,5.60
2023-05-09T23:12:13.203Z,5.10
2023-05-09T23:14:45.308Z,4.20
2023-05-09T23:17:17.614Z,4.70
2023-05-09T23:19:50.139Z,4.80
2023-05-09T23:22:22.419Z,5.00
2023-05-09T23:24:54.740Z,4.30
2023-05-09T23:27:27.150Z,4.60
2023-05-09T23:29:59.670Z,6.10
2023-05-09T23:32:32.179Z,3.70
2023-05-09T23:35:04.891Z,4.30
2023-05-09T23:37:37.290Z,5.00
2023-05-09T23:40:11.431Z,5.30
2023-05-09T23:42:43.686Z,5.50
2023-05-09T23:45:16.472Z,4.50
2023-05-09T23:47:48.818Z,5.50
2023-05-09T23:50:21.589Z,4.80
2023-05-09T23:52:53.831Z,5.60
2023-05-09T23:55:26.118Z,5.50
2023-05-09T23:57:58.270Z,4.20
